createdAt,value
2022-10-05T00:01:53.010Z,17.40
2022-10-05T00:04:23.155Z,17.40
2022-10-05T00:07:08.538Z,17.40
2022-10-05T00:09:38.389Z,17.40
2022-10-05T00:12:19.860Z,17.40
2022-10-05T00:14:49.090Z,17.30
2022-10-05T00:17:25.015Z,17.30
2022-10-05T00:19:54.054Z,17.40
2022-10-05T00:22:32.341Z,17.40
2022-10-05T00:25:01.781Z,17.40
2022-10-05T00:27:36.506Z,17.40
2022-10-05T00:30:12.042Z,17.30
2022-10-05T00:32:39.470Z,17.30
2022-10-05T00:35:07.189Z,17.40
2022-10-05T00:37:34.322Z,17.40
2022-10-05T00:40:02.472Z,17.40
2022-10-05T00:42:44.874Z,17.30
2022-10-05T00:45:12.004Z,17.30
2022-10-05T00:48:07.203Z,17.40
2022-10-05T00:50:57.761Z,17.40
2022-10-05T00:53:43.793Z,17.40
2022-10-05T00:56:29.398Z,17.40
2022-10-05T00:59:03.273Z,17.40
2022-10-05T01:01:33.165Z,17.40
2022-10-05T01:04:24.890Z,17.40
2022-10-05T01:06:58.624Z,17.40
2022-10-05T01:09:32.397Z,17.40
2022-10-05T01:12:26.854Z,17.40
2022-10-05T01:15:04.209Z,17.30
2022-10-05T01:17:49.777Z,17.40
2022-10-05T01:20:39.512Z,17.40
2022-10-05T01:23:25.504Z,17.40
2022-10-05T01:26:15.972Z,17.40
2022-10-05T01:29:00.573Z,17.40
2022-10-05T01:31:42.651Z,17.40
2022-10-05T01:34:15.802Z,17.40
2022-10-05T01:37:19.038Z,17.30
2022-10-05T01:40:14.223Z,17.30
2022-10-05T01:42:55.361Z,17.30
2022-10-05T01:46:00.457Z,17.20
2022-10-05T01:48:56.681Z,17.20
2022-10-05T01:51:35.173Z,17.20
2022-10-05T01:54:14.640Z,17.20
2022-10-05T01:57:01.542Z,17.20
2022-10-05T01:59:47.671Z,17.20
2022-10-05T02:02:18.290Z,17.20
2022-10-05T02:05:02.379Z,17.20
2022-10-05T02:07:40.145Z,17.20
2022-10-05T02:10:32.726Z,17.20
2022-10-05T02:13:46.310Z,17.10
2022-10-05T02:16:37.529Z,17.10
2022-10-05T02:19:23.394Z,17.00
2022-10-05T02:22:14.111Z,17.00
2022-10-05T02:24:46.940Z,16.90
2022-10-05T02:27:21.233Z,17.00
2022-10-05T02:29:52.103Z,17.00
2022-10-05T02:32:27.099Z,17.00
2022-10-05T02:35:02.095Z,16.90
2022-10-05T02:38:06.825Z,16.90
2022-10-05T02:41:01.155Z,16.90
2022-10-05T02:43:45.956Z,16.90
2022-10-05T02:46:38.197Z,16.90
2022-10-05T02:49:13.081Z,17.00
2022-10-05T02:52:21.864Z,17.00
2022-10-05T02:55:02.132Z,17.00
2022-10-05T02:57:41.977Z,16.90
2022-10-05T03:00:24.992Z,16.90
2022-10-05T03:03:01.840Z,16.90
2022-10-05T03:05:35.625Z,16.90
2022-10-05T03:08:15.160Z,16.90
2022-10-05T03:10:45.551Z,16.90
2022-10-05T03:13:28.466Z,16.90
2022-10-05T03:16:15.500Z,16.90
2022-10-05T03:18:47.485Z,16.80
2022-10-05T03:21:51.822Z,16.80
2022-10-05T03:24:28.384Z,16.80
2022-10-05T03:27:14.405Z,16.80
2022-10-05T03:29:55.842Z,16.80
2022-10-05T03:32:38.602Z,16.80
2022-10-05T03:35:15.165Z,16.80
2022-10-05T03:38:02.847Z,16.80
2022-10-05T03:40:41.463Z,16.80
2022-10-05T03:43:27.092Z,16.80
2022-10-05T03:46:09.410Z,16.80
2022-10-05T03:48:50.662Z,16.80
2022-10-05T03:51:28.554Z,16.80
2022-10-05T03:54:19.481Z,16.70
2022-10-05T03:56:50.000Z,16.80
2022-10-05T03:59:37.889Z,16.80
2022-10-05T04:02:12.396Z,16.80
2022-10-05T04:05:00.316Z,16.80
2022-10-05T04:07:32.145Z,16.70
2022-10-05T04:10:03.261Z,16.70
2022-10-05T04:12:42.538Z,16.70
2022-10-05T04:15:27.914Z,16.80
2022-10-05T04:18:10.236Z,16.70
2022-10-05T04:20:44.686Z,16.70
2022-10-05T04:23:28.041Z,16.80
2022-10-05T04:26:02.234Z,16.70
2022-10-05T04:28:58.991Z,16.80
2022-10-05T04:31:58.828Z,16.70
2022-10-05T04:34:40.966Z,16.70
2022-10-05T04:37:18.095Z,16.70
2022-10-05T04:39:57.054Z,16.70
2022-10-05T04:42:36.289Z,16.70
2022-10-05T04:45:26.151Z,16.70
2022-10-05T04:48:18.296Z,16.80
2022-10-05T04:50:53.389Z,16.70
2022-10-05T04:53:42.468Z,16.70
2022-10-05T04:56:29.481Z,15.70
2022-10-05T04:59:13.775Z,16.70
2022-10-05T05:01:53.110Z,16.70
2022-10-05T05:04:52.263Z,16.70
2022-10-05T05:07:29.728Z,16.80
2022-10-05T05:10:34.144Z,16.70
2022-10-05T05:13:28.497Z,16.80
2022-10-05T05:16:42.073Z,16.70
2022-10-05T05:19:32.195Z,16.80
2022-10-05T05:22:07.435Z,16.80
2022-10-05T05:24:43.205Z,16.70
2022-10-05T05:27:35.013Z,16.70
2022-10-05T05:30:17.417Z,16.70
2022-10-05T05:32:51.335Z,16.70
2022-10-05T05:35:46.157Z,16.70
2022-10-05T05:38:31.946Z,16.70
2022-10-05T05:41:13.004Z,16.70
2022-10-05T05:44:08.511Z,16.70
2022-10-05T05:47:02.453Z,16.70
2022-10-05T05:49:35.859Z,16.80
2022-10-05T05:52:31.871Z,16.80
2022-10-05T05:55:16.592Z,16.80
2022-10-05T05:57:50.613Z,16.80
2022-10-05T06:00:26.664Z,16.80
2022-10-05T06:03:18.843Z,16.80
2022-10-05T06:05:57.520Z,16.80
2022-10-05T06:08:35.845Z,16.80
2022-10-05T06:11:23.596Z,16.80
2022-10-05T06:13:52.925Z,16.80
2022-10-05T06:16:25.445Z,16.80
2022-10-05T06:18:58.049Z,16.90
2022-10-05T06:21:47.868Z,16.90
2022-10-05T06:24:27.052Z,16.90
2022-10-05T06:27:12.187Z,16.90
2022-10-05T06:30:04.468Z,16.90
2022-10-05T06:32:54.726Z,17.00
2022-10-05T06:35:26.378Z,17.00
2022-10-05T06:38:14.655Z,17.00
2022-10-05T06:40:48.050Z,17.10
2022-10-05T06:43:36.973Z,17.10
2022-10-05T06:46:24.882Z,17.20
2022-10-05T06:49:30.947Z,17.10
2022-10-05T06:52:24.922Z,17.20
2022-10-05T06:55:15.683Z,17.20
2022-10-05T06:58:02.163Z,17.20
2022-10-05T07:00:44.304Z,17.20
2022-10-05T07:03:40.749Z,17.20
2022-10-05T07:06:17.167Z,17.20
2022-10-05T07:09:09.434Z,17.20
2022-10-05T07:11:54.668Z,17.20
2022-10-05T07:14:39.286Z,17.20
2022-10-05T07:17:23.454Z,17.20
2022-10-05T07:20:16.005Z,17.20
2022-10-05T07:23:14.860Z,17.30
2022-10-05T07:25:51.563Z,17.40
2022-10-05T07:28:40.738Z,17.40
2022-10-05T07:31:39.423Z,17.40
2022-10-05T07:34:12.445Z,17.50
2022-10-05T07:37:20.741Z,17.50
2022-10-05T07:40:00.618Z,17.50
2022-10-05T07:42:47.318Z,17.50
2022-10-05T07:45:52.186Z,17.60
2022-10-05T07:48:23.121Z,17.70
2022-10-05T07:51:06.462Z,17.60
2022-10-05T07:53:40.360Z,17.70
2022-10-05T07:56:25.823Z,17.70
2022-10-05T07:59:18.214Z,17.70
2022-10-05T08:01:51.970Z,17.70
2022-10-05T08:04:30.827Z,17.80
2022-10-05T08:07:05.945Z,17.70
2022-10-05T08:09:59.308Z,17.80
2022-10-05T08:12:34.141Z,17.90
2022-10-05T08:15:11.758Z,17.80
2022-10-05T08:17:54.812Z,17.90
2022-10-05T08:20:56.411Z,18.00
2022-10-05T08:23:45.708Z,18.00
2022-10-05T08:26:33.695Z,17.90
2022-10-05T08:29:20.285Z,18.00
2022-10-05T08:31:52.122Z,18.10
2022-10-05T08:34:24.692Z,18.10
2022-10-05T08:37:03.657Z,18.20
2022-10-05T08:39:40.812Z,18.10
2022-10-05T08:42:19.954Z,18.10
2022-10-05T08:45:05.721Z,18.10
2022-10-05T08:48:12.159Z,18.00
2022-10-05T08:50:48.422Z,18.00
2022-10-05T08:53:23.528Z,18.00
2022-10-05T08:56:26.378Z,17.90
2022-10-05T08:59:26.493Z,18.10
2022-10-05T09:01:53.637Z,18.20
2022-10-05T09:04:43.039Z,18.20
2022-10-05T09:07:45.191Z,18.20
2022-10-05T09:10:30.373Z,18.20
2022-10-05T09:13:25.416Z,18.30
2022-10-05T09:16:01.488Z,18.30
2022-10-05T09:18:47.270Z,18.40
2022-10-05T09:21:48.857Z,18.50
2022-10-05T09:24:48.354Z,18.60
2022-10-05T09:27:17.816Z,18.70
2022-10-05T09:30:03.683Z,18.90
2022-10-05T09:33:04.643Z,19.20
2022-10-05T09:36:01.963Z,19.50
2022-10-05T09:38:43.972Z,19.60
2022-10-05T09:41:42.150Z,19.60
2022-10-05T09:44:41.502Z,19.80
2022-10-05T09:47:35.751Z,19.50
2022-10-05T09:50:38.050Z,19.40
2022-10-05T09:53:20.456Z,19.30
2022-10-05T09:55:56.485Z,19.30
2022-10-05T09:58:33.286Z,19.30
2022-10-05T10:01:09.955Z,19.30
2022-10-05T10:03:58.394Z,19.30
2022-10-05T10:06:31.478Z,19.30
2022-10-05T10:09:19.081Z,19.20
2022-10-05T10:11:49.546Z,19.10
2022-10-05T10:14:39.035Z,19.00
2022-10-05T10:17:36.602Z,19.00
2022-10-05T10:20:20.831Z,19.10
2022-10-05T10:22:57.586Z,19.00
2022-10-05T10:25:49.005Z,19.10
2022-10-05T10:28:34.401Z,19.00
2022-10-05T10:31:23.141Z,19.00
2022-10-05T10:34:28.661Z,19.00
2022-10-05T10:36:58.615Z,19.10
2022-10-05T10:39:45.043Z,19.10
2022-10-05T10:42:36.473Z,19.00
2022-10-05T10:45:25.166Z,19.00
2022-10-05T10:48:28.045Z,18.90
2022-10-05T10:51:22.387Z,18.90
2022-10-05T10:54:12.344Z,18.90
2022-10-05T10:57:24.313Z,18.80
2022-10-05T11:00:15.541Z,18.70
2022-10-05T11:03:21.847Z,18.80
2022-10-05T11:06:08.560Z,18.80
2022-10-05T11:08:46.261Z,18.80
2022-10-05T11:11:31.532Z,18.80
2022-10-05T11:14:21.141Z,18.90
2022-10-05T11:17:22.107Z,18.90
2022-10-05T11:20:04.377Z,18.90
2022-10-05T11:22:45.254Z,18.90
2022-10-05T11:25:54.796Z,18.90
2022-10-05T11:28:37.664Z,18.80
2022-10-05T11:31:32.289Z,18.90
2022-10-05T11:34:17.973Z,18.80
2022-10-05T11:37:20.868Z,18.80
2022-10-05T11:40:14.402Z,18.80
2022-10-05T11:42:53.614Z,18.70
2022-10-05T11:45:31.605Z,18.80
2022-10-05T11:48:01.751Z,18.70
2022-10-05T11:50:51.484Z,18.70
2022-10-05T11:53:29.396Z,18.70
2022-10-05T11:56:02.622Z,18.70
2022-10-05T11:58:36.683Z,18.70
2022-10-05T12:01:29.366Z,18.80
2022-10-05T12:04:08.986Z,18.90
2022-10-05T12:06:39.004Z,19.00
2022-10-05T12:09:27.518Z,18.90
2022-10-05T12:12:12.973Z,19.00
2022-10-05T12:14:56.854Z,19.00
2022-10-05T12:17:44.082Z,18.90
2022-10-05T12:20:25.298Z,18.90
2022-10-05T12:22:55.548Z,18.90
2022-10-05T12:25:32.721Z,18.90
2022-10-05T12:28:09.007Z,19.40
2022-10-05T12:30:58.136Z,19.40
2022-10-05T12:33:46.003Z,19.40
2022-10-05T12:36:24.696Z,19.20
2022-10-05T12:39:05.199Z,19.40
2022-10-05T12:41:38.933Z,19.60
2022-10-05T12:44:32.550Z,19.80
2022-10-05T12:47:24.143Z,19.70
2022-10-05T12:50:21.099Z,19.70
2022-10-05T12:53:04.424Z,19.70
2022-10-05T12:56:00.044Z,19.70
2022-10-05T12:58:51.195Z,19.60
2022-10-05T13:01:25.102Z,19.50
2022-10-05T13:04:03.465Z,19.40
2022-10-05T13:06:39.870Z,19.50
2022-10-05T13:09:28.588Z,19.60
2022-10-05T13:12:03.669Z,19.70
2022-10-05T13:14:55.437Z,19.70
2022-10-05T13:17:50.007Z,19.60
2022-10-05T13:20:38.650Z,19.60
2022-10-05T13:23:22.688Z,19.50
2022-10-05T13:26:21.996Z,19.50
2022-10-05T13:29:29.141Z,19.50
2022-10-05T13:32:15.107Z,19.40
2022-10-05T13:35:17.177Z,19.50
2022-10-05T13:38:19.092Z,19.60
2022-10-05T13:41:00.980Z,19.40
2022-10-05T13:43:43.520Z,19.50
2022-10-05T13:46:21.091Z,19.50
2022-10-05T13:49:11.710Z,19.50
2022-10-05T13:51:46.733Z,19.50
2022-10-05T13:54:37.884Z,19.40
2022-10-05T13:57:18.431Z,19.40
2022-10-05T13:59:58.656Z,19.30
2022-10-05T14:02:40.013Z,19.30
2022-10-05T14:05:18.448Z,19.40
2022-10-05T14:07:54.319Z,19.60
2022-10-05T14:10:38.571Z,19.80
2022-10-05T14:13:26.708Z,20.50
2022-10-05T14:16:12.396Z,20.40
2022-10-05T14:18:52.886Z,20.20
2022-10-05T14:21:26.097Z,20.10
2022-10-05T14:23:53.549Z,19.90
2022-10-05T14:26:27.145Z,19.70
2022-10-05T14:29:23.627Z,19.70
2022-10-05T14:32:02.446Z,19.70
2022-10-05T14:34:54.580Z,19.50
2022-10-05T14:37:25.169Z,19.60
2022-10-05T14:39:57.356Z,19.60
2022-10-05T14:42:28.461Z,19.70
2022-10-05T14:44:59.347Z,19.70
2022-10-05T14:47:30.175Z,19.70
2022-10-05T14:50:30.755Z,19.70
2022-10-05T14:53:16.647Z,19.80
2022-10-05T14:55:49.618Z,19.70
2022-10-05T14:58:41.365Z,19.70
2022-10-05T15:01:28.157Z,19.60
2022-10-05T15:04:13.981Z,19.50
2022-10-05T15:07:13.182Z,19.50
2022-10-05T15:10:01.620Z,19.40
2022-10-05T15:12:43.653Z,19.30
2022-10-05T15:15:42.150Z,19.20
2022-10-05T15:18:51.076Z,19.20
2022-10-05T15:21:36.293Z,19.30
2022-10-05T15:24:17.085Z,19.20
2022-10-05T15:26:53.660Z,19.20
2022-10-05T15:29:36.064Z,19.10
2022-10-05T15:32:26.009Z,19.10
2022-10-05T15:35:03.863Z,19.10
2022-10-05T15:37:44.280Z,19.10
2022-10-05T15:40:29.325Z,19.00
2022-10-05T15:43:03.497Z,19.10
2022-10-05T15:45:52.957Z,19.10
2022-10-05T15:48:48.561Z,19.10
2022-10-05T15:51:50.050Z,19.00
2022-10-05T15:54:43.160Z,19.00
2022-10-05T15:57:33.400Z,19.00
2022-10-05T16:00:10.165Z,18.90
2022-10-05T16:02:54.420Z,18.90
2022-10-05T16:06:08.272Z,18.80
2022-10-05T16:09:20.781Z,18.80
2022-10-05T16:12:17.766Z,18.80
2022-10-05T16:15:04.271Z,18.80
2022-10-05T16:18:01.759Z,18.70
2022-10-05T16:20:52.439Z,18.70
2022-10-05T16:23:31.583Z,18.70
2022-10-05T16:26:14.586Z,18.70
2022-10-05T16:28:56.032Z,18.70
2022-10-05T16:31:46.971Z,18.70
2022-10-05T16:34:44.930Z,18.70
2022-10-05T16:37:45.210Z,18.70
2022-10-05T16:40:34.021Z,18.70
2022-10-05T16:43:25.506Z,18.60
2022-10-05T16:46:28.220Z,18.70
2022-10-05T16:49:21.917Z,18.70
2022-10-05T16:52:00.686Z,18.60
2022-10-05T16:54:47.915Z,18.70
2022-10-05T16:57:29.789Z,18.60
2022-10-05T17:00:21.997Z,18.60
2022-10-05T17:03:04.095Z,18.60
2022-10-05T17:06:05.173Z,18.60
2022-10-05T17:08:49.568Z,18.60
2022-10-05T17:11:17.294Z,18.60
2022-10-05T17:14:04.770Z,18.60
2022-10-05T17:16:44.747Z,18.60
2022-10-05T17:19:28.119Z,18.60
2022-10-05T17:22:17.946Z,18.60
2022-10-05T17:24:51.104Z,18.60
2022-10-05T17:27:33.243Z,18.60
2022-10-05T17:30:27.488Z,18.60
2022-10-05T17:33:04.458Z,18.50
2022-10-05T17:35:51.749Z,18.50
2022-10-05T17:38:23.992Z,18.50
2022-10-05T17:41:00.141Z,18.50
2022-10-05T17:43:32.705Z,18.60
2022-10-05T17:46:00.998Z,18.50
2022-10-05T17:49:02.922Z,18.60
2022-10-05T17:51:48.781Z,18.50
2022-10-05T17:54:40.338Z,18.50
2022-10-05T17:57:07.411Z,18.50
2022-10-05T18:00:04.176Z,18.50
2022-10-05T18:02:36.255Z,18.60
2022-10-05T18:05:04.507Z,18.60
2022-10-05T18:07:36.480Z,18.60
2022-10-05T18:10:09.623Z,18.50
2022-10-05T18:12:36.734Z,18.50
2022-10-05T18:15:21.192Z,18.80
2022-10-05T18:17:55.926Z,18.30
2022-10-05T18:20:28.982Z,18.30
2022-10-05T18:23:09.379Z,18.10
2022-10-05T18:25:53.041Z,17.90
2022-10-05T18:28:35.303Z,18.00
2022-10-05T18:31:26.067Z,18.00
2022-10-05T18:34:20.961Z,18.10
2022-10-05T18:37:22.385Z,17.80
2022-10-05T18:40:24.807Z,17.70
2022-10-05T18:43:17.212Z,17.50
2022-10-05T18:46:23.149Z,17.20
2022-10-05T18:48:53.290Z,17.00
2022-10-05T18:51:39.068Z,16.90
2022-10-05T18:54:45.159Z,16.90
2022-10-05T18:57:43.518Z,16.70
2022-10-05T19:00:18.661Z,16.50
2022-10-05T19:03:08.146Z,16.40
2022-10-05T19:05:57.163Z,16.20
2022-10-05T19:09:06.245Z,15.80
2022-10-05T19:11:57.034Z,15.60
2022-10-05T19:14:45.675Z,15.50
2022-10-05T19:17:19.466Z,15.30
2022-10-05T19:20:11.692Z,15.30
2022-10-05T19:22:56.905Z,15.20
2022-10-05T19:25:51.185Z,15.20
2022-10-05T19:28:54.548Z,15.30
2022-10-05T19:31:48.114Z,15.30
2022-10-05T19:34:33.074Z,15.30
2022-10-05T19:37:19.055Z,15.30
2022-10-05T19:39:54.203Z,15.40
2022-10-05T19:42:47.325Z,15.30
2022-10-05T19:45:23.762Z,15.40
2022-10-05T19:47:55.943Z,15.40
2022-10-05T19:50:23.176Z,15.50
2022-10-05T19:52:56.103Z,15.50
2022-10-05T19:55:31.547Z,15.50
2022-10-05T19:58:02.538Z,15.50
2022-10-05T20:00:32.805Z,15.60
2022-10-05T20:03:08.920Z,15.60
2022-10-05T20:05:36.250Z,15.60
2022-10-05T20:08:05.516Z,15.60
2022-10-05T20:10:33.822Z,15.60
2022-10-05T20:13:04.090Z,15.60
2022-10-05T20:15:54.365Z,15.60
2022-10-05T20:18:56.120Z,15.60
2022-10-05T20:21:41.607Z,15.60
2022-10-05T20:24:25.308Z,15.60
2022-10-05T20:27:06.672Z,15.60
2022-10-05T20:29:41.490Z,15.70
2022-10-05T20:32:11.014Z,15.70
2022-10-05T20:34:43.309Z,15.60
2022-10-05T20:37:15.226Z,15.70
2022-10-05T20:39:43.194Z,15.60
2022-10-05T20:42:11.084Z,15.70
2022-10-05T20:44:38.776Z,15.70
2022-10-05T20:47:09.354Z,15.80
2022-10-05T20:49:38.337Z,15.70
2022-10-05T20:52:06.644Z,15.70
2022-10-05T20:54:33.866Z,15.70
2022-10-05T20:57:01.946Z,15.70
2022-10-05T20:59:29.081Z,15.70
2022-10-05T21:01:58.025Z,15.70
2022-10-05T21:04:30.091Z,15.70
2022-10-05T21:07:02.391Z,15.70
2022-10-05T21:09:30.177Z,15.60
2022-10-05T21:11:57.540Z,15.70
2022-10-05T21:14:27.972Z,15.60
2022-10-05T21:16:55.172Z,15.60
2022-10-05T21:19:22.317Z,15.50
2022-10-05T21:21:49.504Z,15.40
2022-10-05T21:24:17.254Z,15.30
2022-10-05T21:26:45.081Z,15.20
2022-10-05T21:29:13.340Z,15.20
2022-10-05T21:31:40.712Z,15.20
2022-10-05T21:34:08.448Z,15.30
2022-10-05T21:36:35.654Z,15.30
2022-10-05T21:39:02.933Z,15.30
2022-10-05T21:41:30.040Z,15.30
2022-10-05T21:43:57.160Z,15.30
2022-10-05T21:46:26.555Z,15.40
2022-10-05T21:48:55.084Z,15.30
2022-10-05T21:51:24.970Z,15.40
2022-10-05T21:53:58.336Z,15.40
2022-10-05T21:56:34.692Z,15.40
2022-10-05T21:59:08.539Z,15.40
2022-10-05T22:01:36.208Z,15.50
2022-10-05T22:04:05.001Z,15.50
2022-10-05T22:06:33.318Z,15.50
2022-10-05T22:09:00.801Z,15.50
2022-10-05T22:11:28.969Z,15.60
2022-10-05T22:14:02.355Z,15.60
2022-10-05T22:16:36.516Z,15.70
2022-10-05T22:19:12.332Z,15.70
2022-10-05T22:21:41.756Z,15.70
2022-10-05T22:24:11.428Z,15.70
2022-10-05T22:26:40.160Z,15.70
2022-10-05T22:29:07.442Z,15.70
2022-10-05T22:31:34.893Z,15.70
2022-10-05T22:34:02.201Z,15.80
2022-10-05T22:36:29.367Z,15.80
2022-10-05T22:38:56.510Z,15.90
2022-10-05T22:41:23.658Z,15.90
2022-10-05T22:43:51.913Z,15.90
2022-10-05T22:46:20.183Z,15.90
2022-10-05T22:48:47.936Z,16.00
2022-10-05T22:51:15.054Z,16.10
2022-10-05T22:53:42.198Z,16.00
2022-10-05T22:56:11.503Z,16.00
2022-10-05T22:58:40.026Z,16.00
2022-10-05T23:01:09.834Z,16.00
2022-10-05T23:03:37.045Z,16.10
2022-10-05T23:06:07.385Z,15.90
2022-10-05T23:08:36.208Z,15.90
2022-10-05T23:11:05.344Z,15.90
2022-10-05T23:13:33.364Z,15.90
2022-10-05T23:16:12.263Z,15.90
2022-10-05T23:18:40.203Z,15.90
2022-10-05T23:21:08.825Z,16.00
2022-10-05T23:23:40.869Z,16.00
2022-10-05T23:26:09.722Z,15.90
2022-10-05T23:28:39.403Z,15.90
2022-10-05T23:31:07.851Z,15.80
2022-10-05T23:33:36.106Z,15.80
2022-10-05T23:36:13.844Z,15.80
2022-10-05T23:38:41.036Z,15.80
2022-10-05T23:41:09.437Z,15.70
2022-10-05T23:43:37.117Z,15.70
2022-10-05T23:46:05.902Z,15.70
2022-10-05T23:48:33.747Z,15.70
2022-10-05T23:51:00.894Z,15.70
2022-10-05T23:53:28.060Z,15.70
2022-10-05T23:55:55.696Z,15.60
2022-10-05T23:58:22.976Z,15.60
